Time;durP1;ratioP1;P1;durP2;ratioP2;P2;SDS_P1;SDS_P2;PMS_P1;PMS_P2;Temp;Humidity;BMP_temperature;BMP_pressure;BME280_temperature;BME280_humidity;BME280_pressure;Samples;Min_cycle;Max_cycle;Signal;HPM_P1;HPM_P2
2022/08/03 00:02:16;;;;;;;7.93;7.22;;;;;;;;;;4952242;29;20258;-75
2022/08/03 00:04:45;;;;;;;8.20;7.43;;;;;;;;;;4953012;29;20232;-75
2022/08/03 00:07:13;;;;;;;7.65;7.05;;;;;;;;;;4951500;28;20222;-75
2022/08/03 00:09:42;;;;;;;7.93;7.25;;;;;;;;;;4952638;28;20214;-76
2022/08/03 00:12:12;;;;;;;8.15;7.43;;;;;;;;;;4942266;28;20219;-75
2022/08/03 00:14:41;;;;;;;8.07;7.28;;;;;;;;;;4949408;29;20221;-75
2022/08/03 00:17:09;;;;;;;6.88;6.30;;;;;;;;;;4952432;29;20230;-75
2022/08/03 00:19:38;;;;;;;7.63;6.93;;;;;;;;;;4953621;28;20214;-75
2022/08/03 00:22:06;;;;;;;7.78;7.15;;;;;;;;;;4955118;29;20277;-75
2022/08/03 00:24:35;;;;;;;8.05;7.35;;;;;;;;;;4954096;29;20202;-74
2022/08/03 00:27:03;;;;;;;7.97;7.13;;;;;;;;;;4954850;28;20211;-76
2022/08/03 00:29:33;;;;;;;7.93;7.22;;;;;;;;;;4953051;28;20206;-74
2022/08/03 00:32:22;;;;;;;8.30;7.70;;;;;;;;;;4955281;28;20667;-74
2022/08/03 00:34:52;;;;;;;8.40;7.75;;;;;;;;;;4954935;29;20668;-75
2022/08/03 00:37:27;;;;;;;8.05;7.35;;;;;;;;;;4954871;29;20278;-74
2022/08/03 00:40:09;;;;;;;8.23;7.47;;;;;;;;;;4951449;28;20217;-75
2022/08/03 00:42:46;;;;;;;7.95;7.32;;;;;;;;;;4951101;29;20611;-75
2022/08/03 00:45:16;;;;;;;8.40;7.70;;;;;;;;;;4948050;29;20214;-75
2022/08/03 00:47:45;;;;;;;7.97;7.32;;;;;;;;;;4954890;28;20261;-74
2022/08/03 00:50:13;;;;;;;8.25;7.53;;;;;;;;;;4953471;29;20206;-75
2022/08/03 00:52:42;;;;;;;8.82;8.10;;;;;;;;;;4954606;28;20209;-75
2022/08/03 00:55:11;;;;;;;8.25;7.55;;;;;;;;;;4954726;29;20951;-75
2022/08/03 00:57:39;;;;;;;7.93;7.32;;;;;;;;;;4951745;29;20313;-75
2022/08/03 01:00:09;;;;;;;11.23;8.20;;;;;;;;;;4953877;28;20258;-75
2022/08/03 01:02:40;;;;;;;8.35;7.75;;;;;;;;;;4951834;28;20265;-75
2022/08/03 01:05:08;;;;;;;8.00;7.30;;;;;;;;;;4954996;29;20612;-75
2022/08/03 01:07:52;;;;;;;9.25;8.55;;;;;;;;;;4951633;29;20226;-75
2022/08/03 01:10:25;;;;;;;9.07;8.32;;;;;;;;;;4954035;28;20199;-75
2022/08/03 01:12:58;;;;;;;8.65;7.85;;;;;;;;;;4955586;29;20210;-75
2022/08/03 01:15:32;;;;;;;8.07;7.28;;;;;;;;;;4953457;28;20257;-75
2022/08/03 01:18:04;;;;;;;7.65;7.15;;;;;;;;;;4954432;28;20347;-75
2022/08/03 01:20:34;;;;;;;8.63;7.60;;;;;;;;;;4951094;28;20203;-75
2022/08/03 01:23:23;;;;;;;8.50;7.70;;;;;;;;;;4936668;29;20580;-75
2022/08/03 01:26:04;;;;;;;8.10;7.50;;;;;;;;;;4953682;29;20199;-75
2022/08/03 01:28:39;;;;;;;8.25;7.43;;;;;;;;;;4954625;29;20305;-75
2022/08/03 01:31:11;;;;;;;9.50;7.60;;;;;;;;;;4951778;29;20210;-74
2022/08/03 01:33:41;;;;;;;8.10;7.32;;;;;;;;;;4953684;28;20221;-75
2022/08/03 01:36:11;;;;;;;8.15;7.47;;;;;;;;;;4953936;28;20222;-75
2022/08/03 01:38:42;;;;;;;8.25;7.53;;;;;;;;;;4953010;28;20226;-75
2022/08/03 01:41:12;;;;;;;8.50;7.85;;;;;;;;;;4953523;29;20206;-75
2022/08/03 01:43:43;;;;;;;8.82;7.55;;;;;;;;;;4958179;28;20226;-75
2022/08/03 01:46:33;;;;;;;8.30;7.60;;;;;;;;;;4957386;28;20273;-74
2022/08/03 01:49:03;;;;;;;9.18;8.00;;;;;;;;;;4957922;28;20622;-75
2022/08/03 01:51:37;;;;;;;8.70;7.93;;;;;;;;;;4957119;28;20230;-74
2022/08/03 01:54:26;;;;;;;8.80;8.02;;;;;;;;;;4958284;29;20211;-74
2022/08/03 01:56:57;;;;;;;8.38;7.68;;;;;;;;;;4956997;29;20245;-75
2022/08/03 01:59:26;;;;;;;9.77;8.48;;;;;;;;;;4956310;28;20202;-74
2022/08/03 02:01:58;;;;;;;9.25;8.40;;;;;;;;;;4956882;28;20206;-75
2022/08/03 02:04:47;;;;;;;9.35;8.45;;;;;;;;;;4957310;29;20295;-75
2022/08/03 02:07:16;;;;;;;8.20;7.53;;;;;;;;;;4957190;29;20222;-75
2022/08/03 02:09:46;;;;;;;9.50;8.60;;;;;;;;;;4956689;28;20198;-75
2022/08/03 02:12:15;;;;;;;9.27;8.43;;;;;;;;;;4957161;28;20207;-75
2022/08/03 02:14:44;;;;;;;8.82;8.02;;;;;;;;;;4956212;28;20238;-75
2022/08/03 02:17:15;;;;;;;9.30;8.50;;;;;;;;;;4957204;29;20234;-75
2022/08/03 02:19:43;;;;;;;8.82;8.13;;;;;;;;;;4957203;28;20207;-75
2022/08/03 02:22:12;;;;;;;9.05;8.25;;;;;;;;;;4957474;28;20203;-75
2022/08/03 02:24:42;;;;;;;9.18;8.32;;;;;;;;;;4956759;29;20218;-75
2022/08/03 02:27:19;;;;;;;9.23;8.52;;;;;;;;;;4957490;29;20274;-74
2022/08/03 02:29:49;;;;;;;9.25;8.55;;;;;;;;;;4956950;28;20217;-75
2022/08/03 02:32:21;;;;;;;9.20;8.50;;;;;;;;;;4957580;28;20207;-75
2022/08/03 02:34:52;;;;;;;9.95;9.15;;;;;;;;;;4956071;28;20218;-75
2022/08/03 02:37:22;;;;;;;9.35;8.65;;;;;;;;;;4957217;28;20230;-74
2022/08/03 02:39:52;;;;;;;10.10;9.30;;;;;;;;;;4956221;28;20210;-75
2022/08/03 02:42:22;;;;;;;9.57;8.82;;;;;;;;;;4957582;28;20214;-74
2022/08/03 02:44:52;;;;;;;9.52;8.70;;;;;;;;;;4956160;28;20662;-75
2022/08/03 02:47:22;;;;;;;8.95;8.15;;;;;;;;;;4953826;28;20292;-74
2022/08/03 02:49:51;;;;;;;8.73;7.97;;;;;;;;;;4955832;29;20664;-75
2022/08/03 02:52:22;;;;;;;8.50;7.80;;;;;;;;;;4938273;29;20215;-75
2022/08/03 02:54:52;;;;;;;8.90;8.20;;;;;;;;;;4950337;28;20203;-75
2022/08/03 02:57:21;;;;;;;8.73;8.00;;;;;;;;;;4956178;29;20310;-75
2022/08/03 02:59:50;;;;;;;10.05;9.15;;;;;;;;;;4951715;28;20211;-75
2022/08/03 03:02:19;;;;;;;9.57;8.70;;;;;;;;;;4955540;29;20628;-75
2022/08/03 03:04:50;;;;;;;8.77;8.07;;;;;;;;;;4956298;28;20627;-75
2022/08/03 03:07:38;;;;;;;8.57;7.78;;;;;;;;;;4946990;29;20214;-75
2022/08/03 03:10:21;;;;;;;10.80;9.07;;;;;;;;;;4955299;28;20210;-75
2022/08/03 03:12:51;;;;;;;9.73;8.80;;;;;;;;;;4952744;29;20221;-75
2022/08/03 03:15:19;;;;;;;10.07;9.10;;;;;;;;;;4951116;29;20207;-74
2022/08/03 03:17:48;;;;;;;9.10;8.40;;;;;;;;;;4956258;28;20230;-74
2022/08/03 03:20:19;;;;;;;9.73;8.82;;;;;;;;;;4955152;28;20210;-75
2022/08/03 03:22:59;;;;;;;10.88;8.73;;;;;;;;;;4956768;29;20664;-75
2022/08/03 03:25:28;;;;;;;8.90;8.20;;;;;;;;;;4954630;28;20195;-75
2022/08/03 03:27:57;;;;;;;10.00;9.20;;;;;;;;;;4955989;28;20252;-74
2022/08/03 03:30:26;;;;;;;10.02;9.30;;;;;;;;;;4954351;28;20230;-75
2022/08/03 03:32:55;;;;;;;9.90;9.20;;;;;;;;;;4956423;28;20209;-75
2022/08/03 03:35:24;;;;;;;9.60;8.80;;;;;;;;;;4953515;28;20253;-75
2022/08/03 03:37:53;;;;;;;9.68;8.73;;;;;;;;;;4955921;29;20230;-74
2022/08/03 03:40:22;;;;;;;9.73;8.82;;;;;;;;;;4955122;28;20633;-75
2022/08/03 03:42:50;;;;;;;9.27;8.57;;;;;;;;;;4959714;28;20206;-74
2022/08/03 03:45:19;;;;;;;9.88;8.98;;;;;;;;;;4949545;28;20222;-75
2022/08/03 03:47:47;;;;;;;8.80;8.10;;;;;;;;;;4955435;28;20222;-74
2022/08/03 03:50:18;;;;;;;9.07;8.25;;;;;;;;;;4953996;28;20210;-75
2022/08/03 03:52:48;;;;;;;8.90;8.18;;;;;;;;;;4957022;28;20206;-74
2022/08/03 03:55:17;;;;;;;9.93;9.13;;;;;;;;;;4954703;28;20210;-76
2022/08/03 03:57:46;;;;;;;9.00;8.30;;;;;;;;;;4955405;28;20230;-75
2022/08/03 04:00:15;;;;;;;9.50;8.52;;;;;;;;;;4953880;28;20214;-75
2022/08/03 04:02:44;;;;;;;8.77;8.07;;;;;;;;;;4956236;28;20206;-74
2022/08/03 04:11:01;;;;;;;9.90;9.02;;;;;;;;;;4953312;28;20719;-75
2022/08/03 04:13:31;;;;;;;11.15;8.30;;;;;;;;;;4955686;29;20226;-75
2022/08/03 04:16:00;;;;;;;9.70;8.77;;;;;;;;;;4955244;28;20206;-75
2022/08/03 04:18:30;;;;;;;9.15;8.45;;;;;;;;;;4953149;28;20226;-75
2022/08/03 04:20:59;;;;;;;9.63;8.68;;;;;;;;;;4955281;28;20599;-74
2022/08/03 04:23:31;;;;;;;8.98;8.27;;;;;;;;;;4955521;28;20711;-74
2022/08/03 04:26:00;;;;;;;8.75;7.95;;;;;;;;;;4955535;28;20213;-76
2022/08/03 04:28:30;;;;;;;9.73;8.98;;;;;;;;;;4946886;29;20222;-74
2022/08/03 04:31:00;;;;;;;9.45;8.55;;;;;;;;;;4954593;28;20206;-75
2022/08/03 04:33:29;;;;;;;10.05;9.20;;;;;;;;;;4954666;29;20202;-75
2022/08/03 04:36:00;;;;;;;8.82;8.02;;;;;;;;;;4953291;28;20217;-75
2022/08/03 04:38:33;;;;;;;9.93;8.70;;;;;;;;;;4947250;29;20687;-75
2022/08/03 04:41:02;;;;;;;9.40;8.48;;;;;;;;;;4953403;28;20261;-74
2022/08/03 04:43:33;;;;;;;9.18;8.38;;;;;;;;;;4952835;28;20488;-74
2022/08/03 04:46:02;;;;;;;9.38;8.48;;;;;;;;;;4942599;28;20226;-76
2022/08/03 04:48:30;;;;;;;8.20;7.50;;;;;;;;;;4952993;28;20230;-74
2022/08/03 04:51:03;;;;;;;10.05;8.77;;;;;;;;;;4954359;28;20203;-75
2022/08/03 04:53:33;;;;;;;9.50;8.57;;;;;;;;;;4955315;28;20214;-74
2022/08/03 04:56:05;;;;;;;9.95;9.15;;;;;;;;;;4935680;29;20669;-75
2022/08/03 04:58:33;;;;;;;17.02;9.15;;;;;;;;;;4941145;28;20666;-75
2022/08/03 05:01:02;;;;;;;9.52;8.60;;;;;;;;;;4951959;28;20663;-75
2022/08/03 05:03:31;;;;;;;10.43;8.18;;;;;;;;;;4954749;28;20214;-75
2022/08/03 05:05:59;;;;;;;9.95;8.95;;;;;;;;;;4941852;28;20576;-74
2022/08/03 05:08:38;;;;;;;9.70;8.90;;;;;;;;;;4953488;28;20695;-75
2022/08/03 05:11:14;;;;;;;9.63;8.93;;;;;;;;;;4954447;28;20585;-75
2022/08/03 05:13:43;;;;;;;10.30;9.32;;;;;;;;;;4955173;28;20210;-75
2022/08/03 05:16:12;;;;;;;9.70;8.90;;;;;;;;;;4955230;28;20308;-74
2022/08/03 05:18:41;;;;;;;9.82;8.93;;;;;;;;;;4958239;28;20226;-75
2022/08/03 05:21:09;;;;;;;9.68;8.82;;;;;;;;;;4958842;28;20210;-74
2022/08/03 05:23:39;;;;;;;9.80;8.80;;;;;;;;;;4956989;28;20203;-75
2022/08/03 05:26:07;;;;;;;9.25;8.35;;;;;;;;;;4958211;28;20211;-75
2022/08/03 05:28:36;;;;;;;9.27;8.40;;;;;;;;;;4949756;28;20703;-75
2022/08/03 05:31:04;;;;;;;8.45;7.75;;;;;;;;;;4957147;28;20203;-74
2022/08/03 05:33:33;;;;;;;8.13;7.35;;;;;;;;;;4955003;28;20203;-75
2022/08/03 05:36:01;;;;;;;7.97;7.18;;;;;;;;;;4952384;29;20265;-75
2022/08/03 05:38:32;;;;;;;6.93;6.32;;;;;;;;;;4948081;28;20230;-75
2022/08/03 05:41:04;;;;;;;7.55;6.80;;;;;;;;;;4954861;29;20217;-74
2022/08/03 05:43:50;;;;;;;7.35;6.65;;;;;;;;;;4949970;28;20211;-74
2022/08/03 05:46:19;;;;;;;6.57;5.85;;;;;;;;;;4946143;28;20200;-74
2022/08/03 05:48:47;;;;;;;6.35;5.75;;;;;;;;;;4950885;28;20754;-75
2022/08/03 05:51:16;;;;;;;5.68;5.18;;;;;;;;;;4958748;28;20211;-74
2022/08/03 05:53:44;;;;;;;5.60;5.10;;;;;;;;;;4955450;28;20211;-75
2022/08/03 05:56:14;;;;;;;7.20;4.65;;;;;;;;;;4945522;28;20214;-74
2022/08/03 05:58:44;;;;;;;5.50;4.03;;;;;;;;;;4943520;29;20336;-75
2022/08/03 06:01:13;;;;;;;5.13;4.47;;;;;;;;;;4952914;29;20211;-75
2022/08/03 06:03:42;;;;;;;4.63;4.22;;;;;;;;;;4956868;28;20671;-74
2022/08/03 06:06:10;;;;;;;5.32;4.13;;;;;;;;;;4958330;28;20217;-74
2022/08/03 06:08:39;;;;;;;5.82;4.50;;;;;;;;;;4957875;28;20318;-74
2022/08/03 06:11:08;;;;;;;5.78;4.43;;;;;;;;;;4952739;28;20211;-74
2022/08/03 06:13:38;;;;;;;4.88;4.38;;;;;;;;;;4957370;28;20277;-76
2022/08/03 06:16:07;;;;;;;4.43;4.03;;;;;;;;;;4957688;28;20628;-74
2022/08/03 06:18:35;;;;;;;4.55;4.10;;;;;;;;;;4956455;28;20238;-74
2022/08/03 06:21:04;;;;;;;5.30;3.95;;;;;;;;;;4952036;28;20203;-75
2022/08/03 06:23:43;;;;;;;6.20;4.13;;;;;;;;;;4949089;28;20741;-75
2022/08/03 06:26:20;;;;;;;4.25;3.85;;;;;;;;;;4955690;28;20198;-74
2022/08/03 06:28:50;;;;;;;6.63;4.05;;;;;;;;;;4955088;28;20223;-74
2022/08/03 06:31:22;;;;;;;6.22;4.32;;;;;;;;;;4940958;29;20302;-74
2022/08/03 06:33:51;;;;;;;5.32;3.60;;;;;;;;;;4953695;28;20210;-75
2022/08/03 06:36:39;;;;;;;4.50;3.60;;;;;;;;;;4953137;28;20676;-74
2022/08/03 06:39:08;;;;;;;4.90;3.35;;;;;;;;;;4955875;28;20223;-75
2022/08/03 06:41:36;;;;;;;4.72;3.13;;;;;;;;;;4955812;29;20207;-74
2022/08/03 06:44:13;;;;;;;3.50;3.13;;;;;;;;;;4954409;28;20214;-74
2022/08/03 06:46:42;;;;;;;4.13;3.33;;;;;;;;;;4954014;29;20625;-74
2022/08/03 06:49:10;;;;;;;3.33;2.60;;;;;;;;;;4954027;28;20311;-74
2022/08/03 06:51:39;;;;;;;3.40;3.10;;;;;;;;;;4956888;28;20206;-74
2022/08/03 06:54:28;;;;;;;6.07;3.10;;;;;;;;;;4954832;28;20261;-74
2022/08/03 06:57:02;;;;;;;3.88;2.92;;;;;;;;;;4956828;28;20214;-74
2022/08/03 06:59:32;;;;;;;3.38;2.75;;;;;;;;;;4955296;28;20235;-75
2022/08/03 07:02:20;;;;;;;5.40;2.90;;;;;;;;;;4942291;28;20211;-74
2022/08/03 07:04:49;;;;;;;4.63;3.03;;;;;;;;;;4950987;29;20265;-74
2022/08/03 07:07:18;;;;;;;6.03;3.00;;;;;;;;;;4955152;28;20226;-74
2022/08/03 07:09:47;;;;;;;3.33;3.03;;;;;;;;;;4954693;29;20726;-74
2022/08/03 07:12:25;;;;;;;3.70;2.90;;;;;;;;;;4954111;28;20202;-74
2022/08/03 07:14:55;;;;;;;4.80;2.65;;;;;;;;;;4955161;28;20210;-75
2022/08/03 07:17:28;;;;;;;3.17;2.72;;;;;;;;;;4955938;28;20252;-74
2022/08/03 07:19:56;;;;;;;3.50;2.70;;;;;;;;;;4955407;28;20255;-74
2022/08/03 07:22:25;;;;;;;3.60;2.83;;;;;;;;;;4946325;29;20206;-75
2022/08/03 07:24:53;;;;;;;4.70;2.58;;;;;;;;;;4950122;28;22063;-75
2022/08/03 07:27:22;;;;;;;3.72;2.47;;;;;;;;;;4951606;28;20281;-74
2022/08/03 07:29:50;;;;;;;3.38;2.53;;;;;;;;;;4954247;28;20206;-74
2022/08/03 07:32:20;;;;;;;4.22;2.33;;;;;;;;;;4954717;28;20730;-75
2022/08/03 07:34:48;;;;;;;3.00;2.10;;;;;;;;;;4954129;29;20198;-74
2022/08/03 07:37:17;;;;;;;3.08;2.25;;;;;;;;;;4955474;28;20230;-75
2022/08/03 07:39:45;;;;;;;4.70;2.60;;;;;;;;;;4949380;28;20234;-74
2022/08/03 07:42:14;;;;;;;4.20;2.47;;;;;;;;;;4949988;28;20656;-74
2022/08/03 07:44:43;;;;;;;2.58;2.38;;;;;;;;;;4950158;28;20262;-75
2022/08/03 07:47:12;;;;;;;4.63;2.47;;;;;;;;;;4945137;29;20206;-75
2022/08/03 07:49:51;;;;;;;3.25;2.30;;;;;;;;;;4949015;29;20582;-74
2022/08/03 07:55:06;;;;;;;2.45;2.25;;;;;;;;;;4952273;29;20202;-74
2022/08/03 07:57:35;;;;;;;3.35;2.33;;;;;;;;;;4950745;28;20240;-74
2022/08/03 08:00:04;;;;;;;3.90;2.33;;;;;;;;;;4950884;28;20226;-74
2022/08/03 08:02:33;;;;;;;3.70;2.28;;;;;;;;;;4953856;28;20206;-74
2022/08/03 08:05:02;;;;;;;4.30;2.45;;;;;;;;;;4955391;28;20207;-74
2022/08/03 08:07:33;;;;;;;2.78;2.15;;;;;;;;;;4950743;29;20248;-74
2022/08/03 08:10:01;;;;;;;5.28;2.28;;;;;;;;;;4950960;28;20203;-74
2022/08/03 08:12:30;;;;;;;3.95;1.77;;;;;;;;;;4947137;28;20203;-74
2022/08/03 08:14:58;;;;;;;4.25;2.00;;;;;;;;;;4952350;29;20694;-75
2022/08/03 08:17:27;;;;;;;3.63;2.22;;;;;;;;;;4949772;29;20226;-74
2022/08/03 08:19:55;;;;;;;5.38;1.90;;;;;;;;;;4947966;29;20306;-74
2022/08/03 08:22:26;;;;;;;2.95;2.10;;;;;;;;;;4953703;28;20698;-74
2022/08/03 08:24:58;;;;;;;5.53;2.00;;;;;;;;;;4952271;29;20238;-74
2022/08/03 08:27:29;;;;;;;5.28;2.20;;;;;;;;;;4950943;29;20278;-74
2022/08/03 08:30:18;;;;;;;3.35;2.10;;;;;;;;;;4953250;29;20203;-74
2022/08/03 08:32:47;;;;;;;3.38;2.13;;;;;;;;;;4953861;28;20205;-74
2022/08/03 08:35:16;;;;;;;4.28;2.08;;;;;;;;;;4948630;28;20202;-74
2022/08/03 08:37:46;;;;;;;4.72;2.20;;;;;;;;;;4955102;28;20229;-74
2022/08/03 08:40:21;;;;;;;2.95;2.20;;;;;;;;;;4948482;28;20318;-74
2022/08/03 08:42:49;;;;;;;4.57;2.08;;;;;;;;;;4942276;28;20225;-74
2022/08/03 08:45:27;;;;;;;3.08;1.92;;;;;;;;;;4954018;28;20273;-75
2022/08/03 08:47:56;;;;;;;4.60;1.92;;;;;;;;;;4952724;28;20250;-75
2022/08/03 08:50:30;;;;;;;5.70;2.10;;;;;;;;;;4952766;28;20261;-74
2022/08/03 08:53:01;;;;;;;2.13;1.88;;;;;;;;;;4954641;29;20668;-74
2022/08/03 08:55:30;;;;;;;2.65;1.83;;;;;;;;;;4954512;29;20252;-74
2022/08/03 08:58:20;;;;;;;3.35;2.00;;;;;;;;;;4954994;28;20589;-74
2022/08/03 09:00:49;;;;;;;3.20;1.80;;;;;;;;;;4949273;28;20224;-74
2022/08/03 09:03:17;;;;;;;3.33;1.83;;;;;;;;;;4950387;28;20205;-75
2022/08/03 09:05:57;;;;;;;2.65;1.80;;;;;;;;;;4947965;29;20206;-74
2022/08/03 09:08:27;;;;;;;2.92;1.88;;;;;;;;;;4950645;28;20235;-75
2022/08/03 09:10:56;;;;;;;3.22;1.80;;;;;;;;;;4949114;28;20215;-74
2022/08/03 09:13:24;;;;;;;3.50;1.67;;;;;;;;;;4951373;29;20204;-74
2022/08/03 09:16:07;;;;;;;3.38;1.90;;;;;;;;;;4954326;28;20580;-74
2022/08/03 09:18:36;;;;;;;2.33;1.58;;;;;;;;;;4951910;28;20230;-74
2022/08/03 09:21:15;;;;;;;3.15;2.05;;;;;;;;;;4953161;28;20277;-72
2022/08/03 09:24:03;;;;;;;6.00;1.95;;;;;;;;;;4952879;28;20203;-74
2022/08/03 09:26:35;;;;;;;7.22;2.10;;;;;;;;;;4946974;29;20258;-74
2022/08/03 09:29:04;;;;;;;3.65;1.95;;;;;;;;;;4950228;28;20227;-74
2022/08/03 09:31:42;;;;;;;3.42;2.03;;;;;;;;;;4948846;28;20202;-75
2022/08/03 09:34:12;;;;;;;3.00;1.80;;;;;;;;;;4952085;28;20562;-74
2022/08/03 09:36:42;;;;;;;2.85;1.92;;;;;;;;;;4953947;28;20664;-74
2022/08/03 09:39:13;;;;;;;3.58;2.10;;;;;;;;;;4952832;28;20715;-74
2022/08/03 09:41:41;;;;;;;4.22;1.83;;;;;;;;;;4953221;28;20230;-74
2022/08/03 09:44:10;;;;;;;2.65;1.95;;;;;;;;;;4950713;28;20222;-74
2022/08/03 09:46:53;;;;;;;3.17;1.80;;;;;;;;;;4947333;28;20215;-74
2022/08/03 09:49:22;;;;;;;3.17;2.00;;;;;;;;;;4944046;29;20651;-74
2022/08/03 09:52:13;;;;;;;2.67;2.00;;;;;;;;;;4939361;28;20290;-74
2022/08/03 09:55:03;;;;;;;4.97;1.73;;;;;;;;;;4952916;29;20206;-74
2022/08/03 09:57:52;;;;;;;2.70;1.92;;;;;;;;;;4951474;29;20595;-74
2022/08/03 10:00:35;;;;;;;4.03;2.05;;;;;;;;;;4950732;29;20297;-74
2022/08/03 10:03:04;;;;;;;3.50;2.00;;;;;;;;;;4946658;28;20211;-74
2022/08/03 10:05:33;;;;;;;1.98;1.60;;;;;;;;;;4956667;29;20274;-74
2022/08/03 10:08:15;;;;;;;3.90;1.95;;;;;;;;;;4951193;28;20219;-74
2022/08/03 10:10:45;;;;;;;4.38;1.88;;;;;;;;;;4954075;28;20206;-74
2022/08/03 10:13:15;;;;;;;3.42;1.70;;;;;;;;;;4957339;28;20210;-74
2022/08/03 10:15:44;;;;;;;3.63;2.25;;;;;;;;;;4956363;28;20203;-73
2022/08/03 10:18:33;;;;;;;3.97;2.10;;;;;;;;;;4951583;29;20219;-74
2022/08/03 10:21:05;;;;;;;2.67;2.00;;;;;;;;;;4955029;29;20222;-73
2022/08/03 10:23:48;;;;;;;2.40;1.92;;;;;;;;;;4944839;28;20206;-74
2022/08/03 10:26:19;;;;;;;3.03;1.90;;;;;;;;;;4952370;29;20210;-74
2022/08/03 10:28:50;;;;;;;4.43;2.03;;;;;;;;;;4951346;28;20226;-74
2022/08/03 10:31:21;;;;;;;4.30;1.90;;;;;;;;;;4954551;28;20281;-74
2022/08/03 10:33:52;;;;;;;4.38;2.00;;;;;;;;;;4952511;29;20553;-73
2022/08/03 10:36:22;;;;;;;4.07;2.20;;;;;;;;;;4955485;28;20205;-74
2022/08/03 10:38:52;;;;;;;5.45;2.13;;;;;;;;;;4954546;28;20230;-73
2022/08/03 10:41:23;;;;;;;3.65;1.85;;;;;;;;;;4955241;28;20222;-75
2022/08/03 10:43:54;;;;;;;4.30;1.95;;;;;;;;;;4954529;28;20285;-75
2022/08/03 10:46:24;;;;;;;2.70;1.95;;;;;;;;;;4949920;28;20227;-73
2022/08/03 10:48:55;;;;;;;3.28;1.90;;;;;;;;;;4944611;28;20230;-74
2022/08/03 10:51:24;;;;;;;3.15;1.80;;;;;;;;;;4954540;28;20202;-73
2022/08/03 10:53:52;;;;;;;4.82;1.98;;;;;;;;;;4954618;28;20210;-75
2022/08/03 11:00:06;;;;;;;3.65;1.95;;;;;;;;;;4946638;28;20661;-74
2022/08/03 11:02:54;;;;;;;3.20;1.77;;;;;;;;;;4938507;28;20277;-74
2022/08/03 11:05:27;;;;;;;3.33;1.75;;;;;;;;;;4954270;28;20207;-74
2022/08/03 11:08:10;;;;;;;2.88;1.90;;;;;;;;;;4951193;28;20261;-75
2022/08/03 11:10:39;;;;;;;4.00;1.85;;;;;;;;;;4953474;28;20265;-73
2022/08/03 11:13:10;;;;;;;2.50;1.75;;;;;;;;;;4954982;28;20217;-76
2022/08/03 11:15:45;;;;;;;2.80;2.00;;;;;;;;;;4948005;28;20327;-74
2022/08/03 11:18:15;;;;;;;5.47;1.90;;;;;;;;;;4951680;28;20226;-74
2022/08/03 11:20:45;;;;;;;4.90;2.00;;;;;;;;;;4954619;28;20234;-74
2022/08/03 11:23:15;;;;;;;3.85;2.08;;;;;;;;;;4953470;28;20281;-74
2022/08/03 11:26:26;;;;;;;2.65;1.90;;;;;;;;;;4947255;28;20664;-73
2022/08/03 11:29:20;;;;;;;3.13;1.88;;;;;;;;;;4947614;28;20230;-73
2022/08/03 11:31:51;;;;;;;11.13;2.30;;;;;;;;;;4944437;28;20289;-73
2022/08/03 11:34:23;;;;;;;4.35;2.05;;;;;;;;;;4948261;28;20207;-74
2022/08/03 11:37:14;;;;;;;3.63;2.13;;;;;;;;;;4952033;29;20210;-73
2022/08/03 11:39:45;;;;;;;4.95;1.90;;;;;;;;;;4949568;29;20283;-75
2022/08/03 11:42:29;;;;;;;5.90;2.17;;;;;;;;;;4952027;28;20222;-73
2022/08/03 11:44:58;;;;;;;5.75;1.80;;;;;;;;;;4942935;29;20218;-73
2022/08/03 11:47:29;;;;;;;2.85;1.70;;;;;;;;;;4949164;28;20711;-73
2022/08/03 11:50:02;;;;;;;4.72;2.08;;;;;;;;;;4951559;29;20297;-72
2022/08/03 11:52:35;;;;;;;3.90;1.90;;;;;;;;;;4952519;28;20635;-73
2022/08/03 11:55:09;;;;;;;2.95;2.30;;;;;;;;;;4947286;28;20226;-73
2022/08/03 11:57:38;;;;;;;5.00;1.90;;;;;;;;;;4950655;28;20279;-75
2022/08/03 12:00:35;;;;;;;2.03;1.85;;;;;;;;;;4946230;28;20250;-75
2022/08/03 12:03:14;;;;;;;2.67;1.80;;;;;;;;;;4950803;28;20638;-73
2022/08/03 12:05:45;;;;;;;2.70;1.92;;;;;;;;;;4948237;28;20213;-74
2022/08/03 12:08:31;;;;;;;2.13;1.92;;;;;;;;;;4947452;28;20222;-73
2022/08/03 12:11:01;;;;;;;4.60;2.17;;;;;;;;;;4948629;28;20520;-73
2022/08/03 12:13:37;;;;;;;6.03;1.90;;;;;;;;;;4953855;28;20207;-74
2022/08/03 12:16:27;;;;;;;2.92;1.90;;;;;;;;;;4934915;29;20211;-77
2022/08/03 12:19:01;;;;;;;4.45;2.30;;;;;;;;;;4934919;29;20223;-76
2022/08/03 12:21:32;;;;;;;3.05;2.10;;;;;;;;;;4934794;29;20231;-76
2022/08/03 12:24:04;;;;;;;3.20;2.22;;;;;;;;;;4935007;29;20211;-75
2022/08/03 12:26:44;;;;;;;2.60;1.98;;;;;;;;;;4934041;29;20211;-75
2022/08/03 12:29:27;;;;;;;8.15;2.00;;;;;;;;;;4935136;29;20578;-76
2022/08/03 12:31:55;;;;;;;4.18;1.90;;;;;;;;;;4934866;29;20691;-77
2022/08/03 12:34:49;;;;;;;2.38;1.88;;;;;;;;;;4940308;29;20207;-75
2022/08/03 12:37:19;;;;;;;1.88;1.70;;;;;;;;;;4954055;29;20695;-76
2022/08/03 12:39:51;;;;;;;4.28;2.00;;;;;;;;;;4953617;29;20190;-75
2022/08/03 12:42:33;;;;;;;3.58;2.00;;;;;;;;;;4953927;28;20210;-75
2022/08/03 12:45:17;;;;;;;2.80;2.05;;;;;;;;;;4953676;28;20218;-75
2022/08/03 12:47:52;;;;;;;5.63;1.80;;;;;;;;;;4953310;28;20226;-76
2022/08/03 12:50:32;;;;;;;3.35;2.10;;;;;;;;;;4953631;29;20206;-76
2022/08/03 12:53:01;;;;;;;4.93;2.13;;;;;;;;;;4953266;28;20186;-76
2022/08/03 12:55:33;;;;;;;3.38;2.03;;;;;;;;;;4959685;28;20245;-74
2022/08/03 12:58:32;;;;;;;2.42;1.92;;;;;;;;;;4972822;28;20253;-74
2022/08/03 13:01:02;;;;;;;5.18;2.15;;;;;;;;;;4973035;28;20185;-75
2022/08/03 13:03:41;;;;;;;3.40;1.88;;;;;;;;;;4972855;28;20256;-74
2022/08/03 13:06:14;;;;;;;2.95;1.90;;;;;;;;;;4973093;28;20308;-75
2022/08/03 13:08:44;;;;;;;2.35;2.08;;;;;;;;;;4973110;28;20232;-75
2022/08/03 13:11:23;;;;;;;4.55;2.22;;;;;;;;;;4972640;28;20213;-75
2022/08/03 13:14:12;;;;;;;2.95;1.92;;;;;;;;;;4972928;28;20683;-75
2022/08/03 13:16:47;;;;;;;3.17;1.85;;;;;;;;;;4972940;28;20564;-74
2022/08/03 13:19:16;;;;;;;5.22;1.90;;;;;;;;;;4972223;28;20236;-74
2022/08/03 13:21:47;;;;;;;3.50;2.20;;;;;;;;;;4972539;28;20209;-74
2022/08/03 13:24:31;;;;;;;2.95;2.05;;;;;;;;;;4972336;28;20186;-75
2022/08/03 13:27:01;;;;;;;4.95;2.08;;;;;;;;;;4970761;28;20562;-74
2022/08/03 13:29:49;;;;;;;3.55;2.15;;;;;;;;;;4972985;28;20257;-75
2022/08/03 13:32:18;;;;;;;4.50;1.90;;;;;;;;;;4972528;28;20293;-75
2022/08/03 13:34:47;;;;;;;2.83;1.80;;;;;;;;;;4972926;28;20673;-76
2022/08/03 13:37:17;;;;;;;3.72;2.10;;;;;;;;;;4972450;28;20234;-75
2022/08/03 13:39:45;;;;;;;4.68;1.90;;;;;;;;;;4952346;28;20269;-73
2022/08/03 13:42:28;;;;;;;4.53;1.83;;;;;;;;;;4947487;28;20720;-73
2022/08/03 13:44:56;;;;;;;4.88;2.10;;;;;;;;;;4947168;28;20674;-73
2022/08/03 13:47:25;;;;;;;2.97;1.95;;;;;;;;;;4948440;28;20237;-74
2022/08/03 13:49:53;;;;;;;3.85;1.80;;;;;;;;;;4948510;28;20942;-73
2022/08/03 13:52:31;;;;;;;2.28;1.90;;;;;;;;;;4948147;28;20215;-73
2022/08/03 13:55:00;;;;;;;2.30;2.00;;;;;;;;;;4951258;28;20217;-73
2022/08/03 13:57:28;;;;;;;2.35;1.90;;;;;;;;;;4954144;28;20229;-73
2022/08/03 14:00:18;;;;;;;2.67;1.83;;;;;;;;;;4952752;29;20751;-72
2022/08/03 14:02:55;;;;;;;3.97;2.13;;;;;;;;;;4604309;28;10000445;-73
2022/08/03 14:05:34;;;;;;;4.93;2.28;;;;;;;;;;4951909;29;20210;-73
2022/08/03 14:08:05;;;;;;;2.95;2.00;;;;;;;;;;4952583;28;20230;-73
2022/08/03 14:10:35;;;;;;;3.45;2.10;;;;;;;;;;4953556;29;20298;-72
2022/08/03 14:13:04;;;;;;;3.63;2.15;;;;;;;;;;4955303;28;20207;-75
2022/08/03 14:15:33;;;;;;;5.10;2.00;;;;;;;;;;4956062;28;20212;-73
2022/08/03 14:18:05;;;;;;;3.78;2.30;;;;;;;;;;4957046;28;20700;-72
2022/08/03 14:20:40;;;;;;;4.25;2.00;;;;;;;;;;4957300;28;20261;-74
2022/08/03 14:23:22;;;;;;;5.38;2.50;;;;;;;;;;4957709;29;20214;-75
2022/08/03 14:25:51;;;;;;;6.82;2.45;;;;;;;;;;4957510;29;20194;-75
2022/08/03 14:28:21;;;;;;;4.22;2.38;;;;;;;;;;4957704;29;20223;-75
2022/08/03 14:30:50;;;;;;;5.57;2.20;;;;;;;;;;4957648;29;20589;-75
2022/08/03 14:33:18;;;;;;;3.45;1.80;;;;;;;;;;4957387;29;20232;-76
2022/08/03 14:35:47;;;;;;;3.83;1.90;;;;;;;;;;4957566;29;20660;-75
2022/08/03 14:38:16;;;;;;;3.88;2.47;;;;;;;;;;4957542;29;20645;-75
2022/08/03 14:40:47;;;;;;;4.35;2.45;;;;;;;;;;4957206;29;20207;-75
2022/08/03 14:43:16;;;;;;;4.57;2.05;;;;;;;;;;4957053;29;20215;-75
2022/08/03 14:45:45;;;;;;;3.30;1.95;;;;;;;;;;4955989;29;20716;-75
2022/08/03 14:48:15;;;;;;;5.05;2.05;;;;;;;;;;4955755;29;20226;-74
2022/08/03 14:51:03;;;;;;;5.57;2.45;;;;;;;;;;4954813;28;20241;-74
2022/08/03 14:53:32;;;;;;;3.83;2.15;;;;;;;;;;4955499;29;20206;-74
2022/08/03 14:56:02;;;;;;;3.70;2.00;;;;;;;;;;4955425;29;20206;-75
2022/08/03 14:58:37;;;;;;;2.85;1.80;;;;;;;;;;4954824;29;20222;-75
2022/08/03 15:01:06;;;;;;;3.10;1.90;;;;;;;;;;4955473;29;20211;-75
2022/08/03 15:03:54;;;;;;;2.05;1.85;;;;;;;;;;4954914;29;20234;-74
2022/08/03 15:06:23;;;;;;;3.65;1.98;;;;;;;;;;4955358;29;20210;-75
2022/08/03 15:08:51;;;;;;;3.97;2.00;;;;;;;;;;4955057;29;20237;-74
2022/08/03 15:11:41;;;;;;;3.25;1.98;;;;;;;;;;4954865;29;20648;-74
2022/08/03 15:14:09;;;;;;;2.97;2.05;;;;;;;;;;4954895;29;20688;-74
2022/08/03 15:16:40;;;;;;;2.03;1.83;;;;;;;;;;4957200;28;20237;-74
2022/08/03 15:19:09;;;;;;;3.40;2.00;;;;;;;;;;4974418;28;20637;-75
2022/08/03 15:21:57;;;;;;;4.15;2.10;;;;;;;;;;4973771;28;20257;-74
2022/08/03 15:24:28;;;;;;;2.00;1.80;;;;;;;;;;4974056;28;20210;-74
2022/08/03 15:26:58;;;;;;;3.17;1.60;;;;;;;;;;4972733;28;20202;-74
2022/08/03 15:29:26;;;;;;;2.80;1.98;;;;;;;;;;4972625;28;20627;-74